ADDS METAR Data INFO
IDs: Format: Raw Decoded Include TAF

Data at: 0716 UTC 24 Jun 2018

KHQU 240655Z AUTO 00000KT 10SM CLR 23/22 A3002 RMK AO2 T02330220
KHQU 240635Z AUTO 00000KT 10SM CLR 23/22 A3001 RMK AO2 T02300220
KHQU 240615Z AUTO 00000KT 10SM CLR 23/22 A3001 RMK AO2 T02320220
KHQU 240555Z AUTO 00000KT 10SM CLR 23/22 A3001 RMK AO2 T02280219 10296 20225
KHQU 240535Z AUTO 27003KT 10SM CLR 23/22 A3001 RMK AO2 T02260217
KHQU 240515Z AUTO 27003KT 10SM CLR 23/22 A3001 RMK AO2 T02280218
KHQU 240455Z AUTO 27003KT 10SM CLR 23/22 A3001 RMK AO2 T02270218
KHQU 240435Z AUTO 00000KT 10SM CLR 23/22 A3001 RMK AO2 T02300219
KHQU 240415Z AUTO 00000KT 10SM CLR 23/22 A3001 RMK AO2 T02320219
KHQU 240355Z AUTO 25003KT 10SM CLR 23/22 A3001 RMK AO2 T02320220
KHQU 240335Z AUTO 28005KT 10SM CLR 23/22 A3002 RMK AO2 T02330220
KHQU 240315Z AUTO 27004KT 10SM CLR 23/22 A3001 RMK AO2 T02330221
KHQU 240255Z AUTO 00000KT 10SM CLR 24/22 A3001 RMK AO2 T02390221
KHQU 240235Z AUTO 30003KT 10SM CLR 24/22 A3001 RMK AO2 T02420222
KHQU 240215Z AUTO 27004KT 10SM CLR 25/22 A2999 RMK AO2 T02450223
KHQU 240155Z AUTO 26003KT 10SM CLR 25/22 A2998 RMK AO2 T02470221
KHQU 240135Z AUTO 27004KT 10SM CLR 25/22 A2997 RMK AO2 T02510225
KHQU 240115Z AUTO 28004KT 10SM CLR 26/23 A2996 RMK AO2 T02610225
KHQU 240055Z AUTO 25003KT 10SM CLR 27/23 A2996 RMK AO2 T02660226
KHQU 240035Z AUTO 28005KT 10SM CLR 28/23 A2997 RMK AO2 T02780228
KHQU 240015Z AUTO 31005KT 10SM CLR 28/23 A2997 RMK AO2 T02850231
KHQU 232355Z AUTO 32007KT 10SM CLR 30/23 A2997 RMK AO2 T02960232 10317 20273 403170213 60002
KHQU 232335Z AUTO 32008KT 300V010 10SM SCT040 30/24 A2996 RMK AO2 T03040237
KHQU 232315Z AUTO 30004KT 10SM SCT043 31/24 A2996 RMK AO2 T03090237
KHQU 232255Z AUTO 31006KT 10SM CLR 31/23 A2997 RMK AO2 T03070235
KHQU 232235Z AUTO 32008KT 10SM CLR 31/23 A2997 RMK AO2 LTG DSNT E T03130233
KHQU 232215Z AUTO 31006KT 10SM CLR 31/23 A2996 RMK AO2 LTG DSNT NE T03130230
KHQU 232155Z AUTO 33008KT 290V360 10SM VCTS SCT037 SCT044 31/24 A2996 RMK AO2 LTG DSNT NE T03140236
KHQU 232135Z AUTO 32008KT 10SM SCT035 SCT042 31/23 A2997 RMK AO2 LTG DSNT NE T03140235
KHQU 232115Z AUTO 32007KT 10SM SCT035 SCT042 31/23 A2997 RMK AO2 LTG DSNT NE T03060235
KHQU 232055Z AUTO 33009KT 10SM SCT034 SCT042 31/23 A2996 RMK AO2 T03080231 60002
KHQU 232035Z AUTO 32009G16KT 10SM SCT034 SCT042 31/24 A2997 RMK AO2 T03100235
KHQU 232015Z AUTO 31011G15KT 10SM SCT029 31/23 A2997 RMK AO2 LTG DSNT SE AND S T03070235
KHQU 231955Z AUTO 30012G19KT 10SM SCT029 30/23 A2997 RMK AO2 LTG DSNT SE AND S T03020233
KHQU 231935Z AUTO 30010G17KT 270V330 10SM CLR 30/23 A2997 RMK AO2 LTG DSNT E AND SE T02990229
KHQU 231915Z AUTO 30008G15KT 260V330 10SM SCT080 SCT095 29/23 A2998 RMK AO2 LTG DSNT SE AND S T02920229
KHQU 231855Z AUTO 30008KT 270V340 10SM SCT060 SCT070 BKN095 28/22 A2999 RMK AO2 LTG DSNT E THRU S P0002 T02800224
KHQU 231835Z AUTO 33015G21KT 10SM SCT032 SCT046 BKN070 28/23 A3000 RMK AO2 LTG DSNT S P0002 T02800234
KHQU 231815Z AUTO 31010G19KT 10SM -RA SCT034 BKN040 BKN049 29/23 A2999 RMK AO2 LTG DSNT SW T02860228
KHQU 231755Z AUTO 34008KT 290V010 10SM BKN032 BKN041 31/23 A2998 RMK AO2 LTG DSNT SW T03120229 10314 20230
KHQU 231735Z AUTO 33006KT 10SM BKN030 BKN041 30/23 A3000 RMK AO2 LTG DSNT SW T03050232
KHQU 231715Z AUTO 33007KT 300V360 10SM BKN028 BKN035 30/23 A3000 RMK AO2 T03050229
KHQU 231655Z AUTO 32009KT 270V360 10SM BKN026 BKN033 30/23 A3000 RMK AO2 T03010229
KHQU 231635Z AUTO 32007KT 10SM SCT026 SCT033 SCT120 30/23 A3000 RMK AO2 LTG DSNT W T02960232
KHQU 231615Z AUTO 33008G14KT 10SM SCT022 BKN095 BKN120 29/22 A3001 RMK AO2 T02910224
KHQU 231555Z AUTO 33008KT 310V010 10SM SCT022 OVC095 29/23 A3001 RMK AO2 LTG DSNT W T02860226
KHQU 231535Z AUTO 33011KT 10SM SCT022 SCT027 BKN095 28/22 A3001 RMK AO2 T02810222
KHQU 231515Z AUTO 34012G16KT 10SM OVC024 28/22 A3001 RMK AO2 T02810223
KHQU 231455Z AUTO 32008KT 10SM BKN024 OVC080 28/23 A3001 RMK AO2 T02760227
KHQU 231435Z AUTO 33008G14KT 290V350 10SM BKN020 BKN026 BKN080 28/22 A3000 RMK AO2 T02750224
KHQU 231415Z AUTO 32006KT 10SM BKN018 OVC025 27/23 A2999 RMK AO2 T02710226
KHQU 231355Z AUTO 33007KT 10SM BKN015 BKN020 26/23 A2999 RMK AO2 T02650231
KHQU 231335Z AUTO 34008KT 10SM BKN013 26/23 A2999 RMK AO2 T02590231
KHQU 231315Z AUTO 31008KT 10SM BKN011 BKN014 25/23 A3000 RMK AO2 T02510231
KHQU 231255Z AUTO 30006KT 10SM BKN011 25/23 A2999 RMK AO2 T02460229
KHQU 231235Z AUTO 30005KT 10SM SCT006 24/23 A2998 RMK AO2 T02410226
KHQU 231215Z AUTO 29005KT 7SM CLR 23/22 A2998 RMK AO2 T02340223
KHQU 231155Z AUTO 28004KT 7SM BR SCT090 23/22 A2997 RMK AO2 LTG DSNT NE T02290223 10230 20213 60028 70054
KHQU 231135Z AUTO 27004KT 4SM BR SCT075 SCT090 22/22 A2996 RMK AO2 T02220219
KHQU 231115Z AUTO 27004KT 5SM VCTSBR SCT012 SCT038 BKN100 22/22 A2995 RMK AO2 LTG DSNT E T02220217
KHQU 231055Z AUTO 28004KT 1 3/4SM -TSRA BR SCT013 BKN034 OVC040 22/22 A2994 RMK AO2 VIS 3/4V5 LTG DSNT N P0028 T02210215
KHQU 231035Z AUTO 30006KT 7SM -VCTSRA BR SCT015 BKN035 OVC042 22/21 A2995 RMK AO2 LTG DSNT NE P0004 T02200213
KHQU 231015Z AUTO 00000KT 2 1/2SM -RA BR SCT015 BKN027 BKN047 22/21 A2994 RMK AO2 P0003 T02170212
KHQU 230955Z AUTO 00000KT 10SM SCT050 SCT065 SCT120 22/21 A2993 RMK AO2 T02180210
KHQU 230935Z AUTO 00000KT 10SM CLR 22/21 A2993 RMK AO2 T02190209
KHQU 230915Z AUTO 31004KT 10SM CLR 22/21 A2992 RMK AO2 T02170209
KHQU 230855Z AUTO 00000KT 10SM CLR 22/21 A2992 RMK AO2 T02150209
KHQU 230835Z AUTO 25003KT 10SM SCT039 SCT047 SCT120 21/21 A2992 RMK AO2 T02150209
KHQU 230815Z AUTO 27003KT 10SM SCT041 BKN049 21/21 A2991 RMK AO2 T02150210
KHQU 230755Z AUTO 00000KT 10SM BKN041 BKN047 BKN080 22/21 A2992 RMK AO2 T02160209
KHQU 230735Z AUTO 24003KT 10SM BKN041 BKN048 BKN060 22/21 A2991 RMK AO2 T02150211
KHQU 230715Z AUTO 25003KT 10SM SCT039 SCT048 SCT060 22/21 A2992 RMK AO2 T02160211
KHQU 230655Z AUTO 24004KT 10SM CLR 22/21 A2992 RMK AO2 T02150210
KHQU 230635Z AUTO 25004KT 10SM SCT050 21/21 A2992 RMK AO2 T02150210
KHQU 230615Z AUTO 24003KT 10SM SCT050 21/21 A2993 RMK AO2 T02150210
KHQU 230555Z AUTO 24004KT 10SM CLR 22/21 A2993 RMK AO2 T02160209 10301 20215 60025
KHQU 230535Z AUTO 24005KT 10SM CLR 22/21 A2993 RMK AO2 T02150210
KHQU 230515Z AUTO 23005KT 10SM CLR 22/21 A2994 RMK AO2 T02160210
KHQU 230455Z AUTO 24004KT 10SM SCT120 22/21 A2994 RMK AO2 LTG DSNT E T02180212
KHQU 230435Z AUTO 24004KT 10SM SCT120 22/21 A2994 RMK AO2 LTG DSNT E AND SE T02180212
KHQU 230415Z AUTO 23004KT 10SM SCT120 22/21 A2994 RMK AO2 T02210212
KHQU 230355Z AUTO 22006KT 10SM CLR 22/21 A2995 RMK AO2 LTG DSNT S P0005 T02200213
KHQU 230335Z AUTO 23006KT 5SM -RA BR SCT110 22/22 A2994 RMK AO2 LTG DSNT E AND SE P0004 T02210215
KHQU 230315Z AUTO 24005KT 4SM -VCTSRA BR SCT009 SCT033 BKN110 22/22 A2994 RMK AO2 LTG DSNT E THRU SW P0002 T02210215
KHQU 230255Z AUTO 27008KT 2 1/2SM +VCTSRA BR SCT009 BKN050 OVC090 22/22 A2997 RMK AO2 VIS 1 1/4V3 1/2 LTG DSNT ALQDS P0019 T02230216 60019
KHQU 230235Z AUTO 27004KT 7SM VCTSRA SCT048 SCT060 BKN100 23/21 A2995 RMK AO2 LTG DSNT SE THRU W P0002 T02280213
KHQU 230215Z AUTO 02009KT 10SM -RA SCT048 SCT055 SCT120 25/20 A2992 RMK AO2 LTG DSNT SW T02520204
KHQU 230155Z AUTO 02005KT 10SM CLR 26/20 A2991 RMK AO2 LTG DSNT SW T02560199
KHQU 230135Z AUTO 02005KT 10SM CLR 26/20 A2992 RMK AO2 LTG DSNT SW T02610200
KHQU 230115Z AUTO 01006KT 10SM SCT030 SCT039 27/20 A2991 RMK AO2 LTG DSNT W T02670201
KHQU 230055Z AUTO 01016G21KT 10SM VCTS SCT030 SCT039 29/21 A2990 RMK AO2 LTG DSNT NE T02880213
KHQU 230035Z AUTO 30006KT 10SM CLR 30/22 A2989 RMK AO2 LTG DSNT NW THRU NE T02970224
KHQU 230015Z AUTO 30007KT 10SM CLR 30/22 A2989 RMK AO2 LTG DSNT N AND NW T02990223
KHQU 222355Z AUTO 28007KT 10SM CLR 30/22 A2988 RMK AO2 T03000225 10341 20299 403410232
KHQU 222335Z AUTO 27005KT 10SM CLR 30/22 A2987 RMK AO2 T03050224
KHQU 222315Z AUTO 28006KT 10SM CLR 31/22 A2986 RMK AO2 T03080225
KHQU 222255Z AUTO 29006KT 10SM CLR 31/23 A2986 RMK AO2 LTG DSNT NW T03130227
KHQU 222235Z AUTO 28005KT 10SM CLR 32/22 A2986 RMK AO2 T03190225
KHQU 222215Z AUTO 29005KT 10SM SCT050 32/22 A2985 RMK AO2 T03200224
KHQU 222155Z AUTO 29005KT 10SM SCT050 SCT070 32/22 A2985 RMK AO2 T03210217
KHQU 222135Z AUTO 30008KT 10SM CLR 32/21 A2986 RMK AO2 T03220209
KHQU 222115Z AUTO 29008KT 260V320 10SM CLR 33/22 A2986 RMK AO2 T03280216
KHQU 222055Z AUTO 28009G14KT 250V320 10SM SCT055 SCT075 33/21 A2987 RMK AO2 T03330213
KHQU 222035Z AUTO 29006KT 10SM BKN055 BKN075 33/21 A2987 RMK AO2 T03280207
KHQU 222015Z AUTO 29006KT 10SM SCT055 SCT065 34/21 A2987 RMK AO2 T03380208
KHQU 221955Z AUTO 28013G18KT 10SM SCT055 SCT065 SCT095 34/21 A2988 RMK AO2 T03360209
KHQU 221935Z AUTO 29005KT 10SM SCT055 SCT065 33/21 A2989 RMK AO2 T03340208